createdAt,value
2023-03-30T00:00:21.380Z,8.02
2023-03-30T00:02:51.025Z,7.99
2023-03-30T00:05:18.551Z,8.01
2023-03-30T00:07:46.895Z,8.01
2023-03-30T00:10:17.742Z,7.98
2023-03-30T00:12:47.215Z,7.97
2023-03-30T00:15:15.432Z,7.95
2023-03-30T00:17:42.564Z,7.94
2023-03-30T00:20:11.790Z,7.94
2023-03-30T00:22:40.188Z,7.96
2023-03-30T00:25:08.771Z,7.95
2023-03-30T00:27:36.762Z,7.96
2023-03-30T00:30:13.803Z,8.01
2023-03-30T00:32:42.155Z,8.02
2023-03-30T00:35:10.582Z,8.00
2023-03-30T00:37:38.371Z,8.02
2023-03-30T00:40:08.100Z,8.01
2023-03-30T00:42:38.303Z,8.07
2023-03-30T00:45:08.572Z,8.12
2023-03-30T00:47:37.937Z,8.12
2023-03-30T00:50:05.499Z,8.19
2023-03-30T00:52:33.254Z,8.19
2023-03-30T00:55:00.391Z,8.18
2023-03-30T00:57:28.084Z,8.18
2023-03-30T00:59:55.679Z,8.20
2023-03-30T01:02:23.416Z,8.15
2023-03-30T01:04:53.159Z,8.15
2023-03-30T01:07:24.249Z,8.09
2023-03-30T01:09:53.044Z,8.09
2023-03-30T01:12:20.624Z,8.09
2023-03-30T01:14:48.194Z,8.12
2023-03-30T01:17:21.809Z,8.18
2023-03-30T01:20:12.360Z,8.14
2023-03-30T01:22:50.148Z,8.14
2023-03-30T01:25:36.771Z,8.18
2023-03-30T01:28:24.250Z,8.17
2023-03-30T01:30:57.550Z,8.19
2023-03-30T01:33:43.519Z,8.24
2023-03-30T01:36:25.779Z,8.23
2023-03-30T01:39:11.763Z,8.25
2023-03-30T01:41:41.764Z,8.25
2023-03-30T01:44:19.531Z,8.25
2023-03-30T01:46:56.903Z,8.20
2023-03-30T01:49:31.944Z,8.19
2023-03-30T01:52:10.578Z,8.18
2023-03-30T01:54:42.002Z,8.19
2023-03-30T01:57:18.441Z,8.18
2023-03-30T01:59:57.413Z,8.15
2023-03-30T02:02:27.471Z,8.19
2023-03-30T02:04:57.724Z,8.20
2023-03-30T02:07:29.907Z,8.24
2023-03-30T02:10:01.296Z,8.25
2023-03-30T02:12:30.166Z,8.25
2023-03-30T02:15:03.939Z,8.33
2023-03-30T02:17:31.413Z,8.47
2023-03-30T02:19:59.071Z,8.54
2023-03-30T02:22:27.209Z,8.62
2023-03-30T02:24:55.007Z,8.82
2023-03-30T02:27:22.807Z,8.94
2023-03-30T02:29:49.918Z,9.10
2023-03-30T02:32:19.522Z,9.03
2023-03-30T02:35:05.305Z,9.05
2023-03-30T02:37:38.458Z,9.06
2023-03-30T02:40:15.839Z,8.99
2023-03-30T02:42:55.363Z,8.92
2023-03-30T02:45:42.918Z,8.87
2023-03-30T02:48:16.801Z,8.91
2023-03-30T02:50:46.936Z,8.95
2023-03-30T02:53:40.428Z,8.97
2023-03-30T02:56:12.668Z,8.99
2023-03-30T02:58:55.184Z,9.07
2023-03-30T03:01:23.039Z,9.21
2023-03-30T03:04:07.450Z,9.11
2023-03-30T03:06:43.606Z,9.09
2023-03-30T03:09:10.663Z,8.99
2023-03-30T03:11:37.806Z,8.95
2023-03-30T03:14:04.929Z,8.84
2023-03-30T03:16:34.129Z,8.68
2023-03-30T03:19:14.734Z,8.65
2023-03-30T03:21:42.417Z,8.66
2023-03-30T03:24:09.864Z,8.68
2023-03-30T03:26:56.968Z,8.74
2023-03-30T03:29:24.520Z,8.91
2023-03-30T03:31:51.972Z,8.93
2023-03-30T03:34:21.399Z,9.18
2023-03-30T03:36:57.996Z,9.25
2023-03-30T03:39:27.829Z,9.20
2023-03-30T03:42:02.834Z,9.36
2023-03-30T03:44:29.888Z,9.29
2023-03-30T03:46:57.026Z,9.23
2023-03-30T03:49:24.167Z,9.23
2023-03-30T03:51:51.208Z,9.37
2023-03-30T03:54:18.472Z,9.31
2023-03-30T03:56:48.298Z,9.26
2023-03-30T03:59:15.704Z,9.38
2023-03-30T04:01:42.795Z,9.50
2023-03-30T04:04:09.920Z,9.54
2023-03-30T04:06:37.089Z,9.47
2023-03-30T04:09:04.207Z,9.51
2023-03-30T04:12:06.747Z,9.57
2023-03-30T04:14:58.110Z,9.57
2023-03-30T04:17:49.946Z,9.46
2023-03-30T04:20:25.871Z,9.52
2023-03-30T04:23:21.958Z,9.67
2023-03-30T04:25:52.064Z,9.63
2023-03-30T04:28:46.914Z,9.68
2023-03-30T04:31:38.506Z,9.71
2023-03-30T04:34:31.248Z,9.76
2023-03-30T04:37:11.657Z,9.70
2023-03-30T04:39:58.337Z,9.56
2023-03-30T04:42:34.200Z,9.69
2023-03-30T04:45:24.705Z,9.80
2023-03-30T04:48:18.082Z,9.81
2023-03-30T04:51:04.281Z,9.74
2023-03-30T04:53:50.325Z,9.76
2023-03-30T04:56:41.123Z,9.70
2023-03-30T04:59:40.954Z,9.72
2023-03-30T05:02:25.212Z,9.59
2023-03-30T05:05:21.578Z,9.58
2023-03-30T05:08:07.390Z,9.70
2023-03-30T05:10:49.491Z,9.72
2023-03-30T05:13:26.259Z,9.72
2023-03-30T05:16:16.337Z,9.66
2023-03-30T05:18:54.822Z,9.69
2023-03-30T05:21:46.359Z,9.81
2023-03-30T05:24:36.328Z,9.89
2023-03-30T05:27:22.591Z,9.88
2023-03-30T05:29:58.159Z,9.91
2023-03-30T05:32:41.465Z,9.88
2023-03-30T05:35:27.590Z,9.87
2023-03-30T05:38:17.504Z,9.82
2023-03-30T05:41:05.565Z,9.84
2023-03-30T05:43:51.610Z,9.80
2023-03-30T05:46:31.487Z,9.66
2023-03-30T05:49:14.011Z,9.63
2023-03-30T05:51:49.172Z,9.53
2023-03-30T05:54:30.987Z,9.52
2023-03-30T05:57:10.243Z,9.52
2023-03-30T05:59:59.086Z,9.58
2023-03-30T06:02:48.998Z,9.60
2023-03-30T06:05:19.151Z,9.66
2023-03-30T06:07:47.275Z,9.67
2023-03-30T06:10:14.470Z,9.63
2023-03-30T06:12:43.533Z,9.62
2023-03-30T06:15:24.336Z,9.62
2023-03-30T06:17:56.272Z,9.55
2023-03-30T06:20:24.459Z,9.60
2023-03-30T06:22:52.608Z,9.59
2023-03-30T06:25:23.937Z,9.60
2023-03-30T06:27:52.058Z,9.65
2023-03-30T06:30:19.176Z,9.66
2023-03-30T06:32:49.830Z,9.65
2023-03-30T06:35:47.208Z,9.65
2023-03-30T06:38:17.431Z,9.63
2023-03-30T06:40:44.681Z,9.63
2023-03-30T06:43:22.384Z,9.62
2023-03-30T06:46:11.274Z,9.71
2023-03-30T06:48:39.831Z,9.72
2023-03-30T06:51:25.265Z,9.75
2023-03-30T06:53:56.003Z,9.73
2023-03-30T06:56:23.373Z,9.83
2023-03-30T06:59:05.429Z,9.89
2023-03-30T07:01:37.564Z,9.97
2023-03-30T07:04:25.729Z,9.97
2023-03-30T07:07:28.936Z,10.03
2023-03-30T07:09:56.075Z,10.04
2023-03-30T07:12:24.087Z,10.04
2023-03-30T07:14:52.150Z,10.11
2023-03-30T07:17:19.266Z,10.16
2023-03-30T07:19:46.339Z,10.19
2023-03-30T07:22:13.563Z,10.20
2023-03-30T07:24:41.110Z,10.27
2023-03-30T07:27:08.740Z,10.25
2023-03-30T07:29:37.050Z,10.22
2023-03-30T07:32:04.286Z,10.21
2023-03-30T07:34:31.680Z,10.21
2023-03-30T07:36:59.092Z,10.19
2023-03-30T07:39:31.054Z,10.19
2023-03-30T07:42:00.572Z,10.23
2023-03-30T07:44:29.367Z,10.22
2023-03-30T07:46:58.352Z,10.28
2023-03-30T07:49:27.099Z,10.31
2023-03-30T07:51:54.962Z,10.34
2023-03-30T07:54:26.355Z,10.39
2023-03-30T07:57:13.757Z,10.39
2023-03-30T07:59:41.654Z,10.35
2023-03-30T08:02:39.406Z,10.31
2023-03-30T08:05:10.029Z,10.31
2023-03-30T08:07:49.749Z,10.32
2023-03-30T08:10:23.752Z,10.37
2023-03-30T08:12:51.180Z,10.35
2023-03-30T08:15:18.287Z,10.38
2023-03-30T08:17:46.039Z,10.31
2023-03-30T08:20:13.258Z,10.31
2023-03-30T08:22:40.350Z,10.43
2023-03-30T08:25:07.791Z,10.38
2023-03-30T08:27:34.883Z,10.48
2023-03-30T08:30:02.115Z,10.51
2023-03-30T08:32:29.253Z,10.50
2023-03-30T08:34:56.422Z,10.53
2023-03-30T08:37:23.648Z,10.55
2023-03-30T08:39:50.691Z,10.54
2023-03-30T08:42:40.980Z,10.53
2023-03-30T08:45:10.688Z,10.52
2023-03-30T08:47:39.751Z,10.54
2023-03-30T08:50:09.516Z,10.52
2023-03-30T08:52:37.026Z,10.51
2023-03-30T08:55:04.532Z,10.51
2023-03-30T08:57:41.768Z,10.45
2023-03-30T09:00:20.012Z,10.38
2023-03-30T09:02:50.022Z,10.29
2023-03-30T09:05:27.465Z,10.21
2023-03-30T09:07:57.364Z,10.35
2023-03-30T09:10:26.199Z,10.36
2023-03-30T09:12:56.882Z,10.21
2023-03-30T09:15:31.902Z,10.10
2023-03-30T09:18:18.013Z,9.99
2023-03-30T09:20:46.420Z,10.01
2023-03-30T09:23:17.597Z,10.03
2023-03-30T09:25:44.993Z,9.97
2023-03-30T09:28:17.808Z,10.11
2023-03-30T09:31:01.595Z,10.18
2023-03-30T09:33:41.636Z,10.23
2023-03-30T09:36:38.371Z,10.10
2023-03-30T09:39:09.496Z,10.19
2023-03-30T09:41:39.577Z,10.25
2023-03-30T09:44:11.781Z,10.31
2023-03-30T09:46:38.853Z,10.28
2023-03-30T09:49:13.529Z,10.21
2023-03-30T09:51:59.499Z,10.21
2023-03-30T09:54:33.881Z,10.12
2023-03-30T09:57:01.077Z,10.14
2023-03-30T09:59:35.867Z,10.14
2023-03-30T10:02:10.784Z,10.10
2023-03-30T10:04:53.380Z,10.11
2023-03-30T10:07:31.703Z,10.14
2023-03-30T10:10:00.779Z,10.24
2023-03-30T10:12:28.531Z,10.29
2023-03-30T10:14:56.845Z,10.29
2023-03-30T10:17:25.043Z,10.37
2023-03-30T10:20:03.660Z,10.69
2023-03-30T10:22:37.520Z,10.56
2023-03-30T10:25:10.389Z,10.69
2023-03-30T10:27:39.644Z,10.83
2023-03-30T10:30:11.800Z,10.98
2023-03-30T10:32:43.420Z,11.49
2023-03-30T10:35:10.721Z,11.56
2023-03-30T10:37:39.881Z,11.52
2023-03-30T10:40:15.635Z,11.30
2023-03-30T10:42:43.192Z,11.17
2023-03-30T10:45:18.165Z,11.31
2023-03-30T10:48:03.815Z,11.20
2023-03-30T10:50:35.995Z,11.16
2023-03-30T10:53:21.751Z,11.03
2023-03-30T10:55:53.087Z,10.95
2023-03-30T10:58:44.319Z,10.95
2023-03-30T11:01:16.511Z,10.97
2023-03-30T11:03:48.349Z,10.92
2023-03-30T11:06:24.741Z,10.98
2023-03-30T11:08:53.181Z,10.95
2023-03-30T11:11:22.641Z,10.88
2023-03-30T11:13:51.324Z,10.93
2023-03-30T11:16:25.875Z,10.77
2023-03-30T11:19:00.113Z,10.71
2023-03-30T11:21:37.368Z,10.69
2023-03-30T11:24:07.651Z,10.68
2023-03-30T11:26:48.393Z,10.70
2023-03-30T11:29:31.293Z,10.82
2023-03-30T11:32:10.439Z,10.69
2023-03-30T11:34:43.610Z,10.78
2023-03-30T11:37:16.175Z,10.77
2023-03-30T11:39:50.586Z,10.86
2023-03-30T11:42:23.912Z,10.89
2023-03-30T11:44:51.870Z,10.92
2023-03-30T11:47:24.975Z,11.03
2023-03-30T11:49:58.045Z,11.03
2023-03-30T11:52:35.819Z,11.02
2023-03-30T11:55:19.549Z,11.15
2023-03-30T11:57:49.616Z,11.11
2023-03-30T12:00:26.691Z,11.03
2023-03-30T12:03:13.364Z,10.88
2023-03-30T12:05:44.501Z,10.77
2023-03-30T12:08:14.283Z,10.84
2023-03-30T12:10:42.120Z,10.72
2023-03-30T12:13:12.280Z,10.71
2023-03-30T12:15:53.900Z,10.58
2023-03-30T12:18:32.080Z,10.56
2023-03-30T12:21:17.957Z,10.53
2023-03-30T12:23:45.024Z,10.57
2023-03-30T12:26:31.781Z,10.61
2023-03-30T12:31:51.252Z,10.48
2023-03-30T12:34:19.360Z,10.52
2023-03-30T12:36:49.093Z,10.57
2023-03-30T12:39:21.815Z,10.58
2023-03-30T12:41:50.303Z,10.64
2023-03-30T12:44:17.356Z,10.67
2023-03-30T12:47:18.422Z,10.65
2023-03-30T12:50:04.120Z,10.76
2023-03-30T12:52:49.297Z,10.74
2023-03-30T12:55:34.837Z,10.73
2023-03-30T12:58:26.957Z,10.75
2023-03-30T13:01:12.781Z,10.81
2023-03-30T13:03:50.265Z,10.97
2023-03-30T13:06:38.276Z,10.84
2023-03-30T13:09:08.114Z,10.85
2023-03-30T13:11:47.299Z,10.84
2023-03-30T13:14:26.656Z,11.06
2023-03-30T13:16:53.770Z,10.92
2023-03-30T13:19:33.461Z,11.13
2023-03-30T13:22:12.802Z,11.12
2023-03-30T13:24:42.854Z,10.96
2023-03-30T13:27:30.331Z,11.28
2023-03-30T13:30:00.543Z,11.13
2023-03-30T13:32:33.879Z,11.22
2023-03-30T13:35:27.485Z,11.21
2023-03-30T13:37:54.614Z,11.35
2023-03-30T13:40:37.276Z,11.45
2023-03-30T13:43:10.114Z,11.19
2023-03-30T13:45:50.021Z,11.26
2023-03-30T13:48:35.972Z,11.24
2023-03-30T13:51:04.414Z,11.08
2023-03-30T13:53:37.775Z,11.02
2023-03-30T13:56:09.428Z,11.17
2023-03-30T13:58:37.381Z,11.10
2023-03-30T14:01:14.801Z,11.07
2023-03-30T14:03:45.729Z,11.01
2023-03-30T14:06:13.544Z,11.13
2023-03-30T14:08:45.159Z,11.19
2023-03-30T14:11:20.138Z,11.20
2023-03-30T14:13:49.276Z,11.24
2023-03-30T14:16:21.901Z,11.36
2023-03-30T14:18:49.554Z,11.46
2023-03-30T14:21:21.935Z,11.28
2023-03-30T14:23:51.420Z,11.48
2023-03-30T14:26:22.365Z,11.46
2023-03-30T14:28:54.245Z,11.51
2023-03-30T14:31:21.563Z,11.36
2023-03-30T14:33:49.176Z,11.43
2023-03-30T14:36:20.529Z,11.53
2023-03-30T14:38:52.774Z,11.48
2023-03-30T14:41:23.253Z,11.54
2023-03-30T14:44:10.759Z,11.35
2023-03-30T14:46:48.596Z,11.29
2023-03-30T14:49:34.532Z,11.38
2023-03-30T14:52:08.959Z,11.58
2023-03-30T14:54:36.925Z,11.68
2023-03-30T14:57:06.181Z,11.31
2023-03-30T14:59:34.404Z,11.30
2023-03-30T15:02:02.218Z,11.49
2023-03-30T15:04:32.643Z,11.80
2023-03-30T15:07:00.264Z,11.86
2023-03-30T15:09:27.399Z,12.03
2023-03-30T15:11:59.331Z,11.85
2023-03-30T15:14:27.138Z,11.58
2023-03-30T15:16:55.667Z,11.77
2023-03-30T15:19:30.519Z,11.84
2023-03-30T15:22:00.002Z,11.54
2023-03-30T15:24:32.370Z,11.51
2023-03-30T15:27:02.365Z,11.40
2023-03-30T15:29:29.735Z,11.37
2023-03-30T15:32:01.337Z,11.46
2023-03-30T15:34:28.491Z,11.51
2023-03-30T15:36:55.815Z,11.46
2023-03-30T15:39:33.670Z,11.38
2023-03-30T15:42:04.367Z,11.30
2023-03-30T15:44:36.405Z,11.22
2023-03-30T15:47:04.261Z,11.27
2023-03-30T15:49:39.804Z,11.28
2023-03-30T15:52:14.222Z,11.20
2023-03-30T15:54:44.736Z,11.22
2023-03-30T15:57:13.450Z,11.15
2023-03-30T15:59:44.095Z,11.11
2023-03-30T16:02:21.589Z,11.11
2023-03-30T16:04:52.199Z,10.91
2023-03-30T16:07:20.783Z,10.88
2023-03-30T16:09:48.573Z,10.76
2023-03-30T16:12:17.583Z,10.68
2023-03-30T16:14:44.812Z,10.63
2023-03-30T16:17:13.221Z,10.54
2023-03-30T16:19:41.233Z,10.49
2023-03-30T16:22:09.619Z,10.44
2023-03-30T16:24:37.144Z,10.33
2023-03-30T16:27:05.112Z,10.37
2023-03-30T16:29:32.576Z,10.31
2023-03-30T16:32:00.041Z,10.27
2023-03-30T16:34:27.198Z,10.28
2023-03-30T16:36:54.349Z,10.20
2023-03-30T16:39:21.420Z,10.23
2023-03-30T16:41:49.528Z,10.20
2023-03-30T16:44:17.385Z,10.22
2023-03-30T16:46:45.467Z,10.16
2023-03-30T16:49:17.702Z,10.21
2023-03-30T16:51:45.208Z,10.17
2023-03-30T16:54:27.258Z,10.05
2023-03-30T16:56:57.191Z,10.10
2023-03-30T16:59:25.864Z,10.02
2023-03-30T17:01:53.061Z,10.03
2023-03-30T17:04:20.397Z,9.97
2023-03-30T17:06:47.574Z,9.98
2023-03-30T17:09:18.378Z,9.98
2023-03-30T17:11:46.459Z,9.99
2023-03-30T17:14:13.930Z,9.84
2023-03-30T17:16:41.079Z,9.82
2023-03-30T17:19:12.652Z,9.83
2023-03-30T17:21:43.871Z,9.85
2023-03-30T17:24:12.783Z,9.80
2023-03-30T17:26:40.606Z,9.75
2023-03-30T17:29:07.643Z,9.66
2023-03-30T17:31:34.978Z,9.68
2023-03-30T17:34:02.165Z,9.62
2023-03-30T17:36:29.286Z,9.62
2023-03-30T17:38:56.677Z,9.57
2023-03-30T17:41:23.830Z,9.52
2023-03-30T17:43:51.662Z,9.51
2023-03-30T17:46:19.528Z,9.47
2023-03-30T17:48:46.973Z,9.44
2023-03-30T17:51:14.044Z,9.36
2023-03-30T17:53:41.156Z,9.38
2023-03-30T17:56:11.671Z,9.33
2023-03-30T17:58:38.907Z,9.34
2023-03-30T18:01:07.933Z,9.32
2023-03-30T18:03:35.559Z,9.20
2023-03-30T18:06:03.005Z,9.15
2023-03-30T18:08:30.401Z,9.10
2023-03-30T18:10:58.620Z,9.07
2023-03-30T18:13:26.405Z,9.05
2023-03-30T18:15:54.907Z,9.06
2023-03-30T18:18:24.763Z,9.05
2023-03-30T18:20:53.193Z,9.05
2023-03-30T18:23:20.574Z,9.04
2023-03-30T18:25:47.863Z,8.99
2023-03-30T18:28:17.149Z,8.95
2023-03-30T18:30:44.407Z,8.94
2023-03-30T18:33:11.782Z,8.86
2023-03-30T18:35:39.110Z,8.88
2023-03-30T18:38:06.235Z,8.92
2023-03-30T18:40:38.156Z,8.90
2023-03-30T18:43:05.852Z,8.89
2023-03-30T18:45:38.055Z,8.86
2023-03-30T18:48:06.416Z,8.80
2023-03-30T18:50:36.736Z,8.83
2023-03-30T18:53:05.261Z,8.74
2023-03-30T18:55:33.378Z,8.77
2023-03-30T18:58:02.564Z,8.72
2023-03-30T19:00:30.996Z,8.65
2023-03-30T19:02:59.012Z,8.71
2023-03-30T19:05:27.109Z,8.71
2023-03-30T19:07:54.272Z,8.68
2023-03-30T19:10:23.199Z,8.65
2023-03-30T19:12:53.407Z,8.66
2023-03-30T19:15:23.452Z,8.65
2023-03-30T19:17:51.397Z,8.59
2023-03-30T19:20:19.887Z,8.67
2023-03-30T19:22:47.082Z,8.62
2023-03-30T19:25:15.361Z,8.64
2023-03-30T19:27:55.524Z,8.65
2023-03-30T19:30:28.862Z,8.68
2023-03-30T19:32:58.139Z,8.66
2023-03-30T19:35:25.808Z,8.70
2023-03-30T19:37:53.279Z,8.63
2023-03-30T19:40:21.751Z,8.65
2023-03-30T19:42:49.291Z,8.58
2023-03-30T19:45:17.639Z,8.59
2023-03-30T19:47:44.951Z,8.51
2023-03-30T19:50:15.399Z,8.47
2023-03-30T19:52:42.621Z,8.44
2023-03-30T19:55:10.335Z,8.46
2023-03-30T19:57:37.734Z,8.58
2023-03-30T20:00:12.508Z,8.61
2023-03-30T20:02:41.152Z,8.64
2023-03-30T20:05:12.870Z,8.59
2023-03-30T20:07:40.742Z,8.54
2023-03-30T20:10:08.908Z,8.51
2023-03-30T20:12:36.049Z,8.40
2023-03-30T20:15:05.765Z,8.49
2023-03-30T20:17:34.218Z,8.49
2023-03-30T20:20:09.008Z,8.41
2023-03-30T20:22:37.421Z,8.36
2023-03-30T20:25:06.504Z,8.30
2023-03-30T20:27:33.941Z,8.29
2023-03-30T20:30:01.449Z,8.29
2023-03-30T20:32:28.546Z,8.25
2023-03-30T20:34:55.626Z,8.24
2023-03-30T20:37:22.783Z,8.16
2023-03-30T20:39:50.527Z,8.11
2023-03-30T20:42:18.101Z,8.10
2023-03-30T20:44:50.263Z,8.12
2023-03-30T20:47:17.823Z,8.12
2023-03-30T20:49:46.315Z,8.08
2023-03-30T20:52:13.471Z,8.05
2023-03-30T20:54:44.371Z,8.06
2023-03-30T20:57:11.999Z,8.01
2023-03-30T20:59:39.531Z,7.99
2023-03-30T21:02:07.056Z,7.88
2023-03-30T21:04:34.199Z,7.87
2023-03-30T21:07:01.519Z,7.82
2023-03-30T21:09:29.237Z,7.75
2023-03-30T21:11:56.330Z,7.75
2023-03-30T21:14:24.193Z,7.70
2023-03-30T21:16:51.282Z,7.68
2023-03-30T21:19:18.375Z,7.59
2023-03-30T21:21:45.509Z,7.48
2023-03-30T21:24:12.712Z,7.48
2023-03-30T21:26:40.895Z,7.49
2023-03-30T21:29:07.977Z,7.49
2023-03-30T21:31:35.093Z,7.39
2023-03-30T21:34:02.355Z,7.38
2023-03-30T21:36:29.579Z,7.34
2023-03-30T21:38:58.602Z,7.33
2023-03-30T21:41:26.190Z,7.35
2023-03-30T21:43:53.662Z,7.31
2023-03-30T21:46:22.031Z,7.26
2023-03-30T21:48:51.792Z,7.27
2023-03-30T21:51:21.968Z,7.13
2023-03-30T21:53:50.697Z,7.17
2023-03-30T21:56:18.743Z,7.13
2023-03-30T21:58:46.210Z,7.12
2023-03-30T22:01:13.367Z,7.08
2023-03-30T22:03:41.784Z,7.02
2023-03-30T22:06:09.929Z,6.99
2023-03-30T22:08:37.205Z,6.95
2023-03-30T22:11:23.656Z,6.89
2023-03-30T22:13:52.111Z,6.86
2023-03-30T22:16:22.218Z,6.87
2023-03-30T22:18:50.095Z,6.83
2023-03-30T22:21:18.831Z,6.78
2023-03-30T22:23:46.572Z,6.81
2023-03-30T22:26:14.437Z,6.81
2023-03-30T22:28:42.145Z,6.80
2023-03-30T22:31:10.322Z,6.75
2023-03-30T22:33:37.677Z,6.78
2023-03-30T22:36:05.390Z,6.71
2023-03-30T22:38:32.945Z,6.73
2023-03-30T22:41:06.450Z,6.74
2023-03-30T22:43:35.714Z,6.75
2023-03-30T22:46:03.732Z,6.77
2023-03-30T22:48:31.250Z,6.77
2023-03-30T22:51:02.189Z,6.65
2023-03-30T22:53:30.128Z,6.68
2023-03-30T22:55:57.623Z,6.58
2023-03-30T22:58:24.683Z,6.63
2023-03-30T23:00:52.031Z,6.61
2023-03-30T23:03:19.207Z,6.66
2023-03-30T23:05:52.746Z,6.64
2023-03-30T23:08:19.848Z,6.60
2023-03-30T23:10:46.878Z,6.60
2023-03-30T23:13:14.094Z,6.44
2023-03-30T23:15:42.731Z,6.52
2023-03-30T23:18:10.038Z,6.44
2023-03-30T23:20:37.391Z,6.51
2023-03-30T23:23:04.460Z,6.49
2023-03-30T23:25:31.517Z,6.53
2023-03-30T23:27:58.553Z,6.54
2023-03-30T23:30:25.588Z,6.53
2023-03-30T23:32:52.633Z,6.39
2023-03-30T23:35:19.866Z,6.19
2023-03-30T23:37:46.932Z,6.22
2023-03-30T23:40:14.093Z,6.40
2023-03-30T23:42:41.223Z,6.43
2023-03-30T23:45:08.569Z,6.44
2023-03-30T23:47:35.787Z,6.44
2023-03-30T23:50:03.093Z,6.47
2023-03-30T23:52:30.892Z,6.42
2023-03-30T23:55:01.837Z,6.32
2023-03-30T23:57:29.145Z,6.28
2023-03-30T23:59:56.304Z,6.19
